Spring Hill, California
Current Conditions -  °F | °C
As of 9:40 PM on Thursday 27 Nov 2014 (Local Time) from KGOO Reporting Station
Clear Clear  
Wind Chill: 57°   Ceiling: Unl
Heat Index: 57°   Visibility: 10mi
Dew Point: 30°   Wind: 6mph
Humidity: 36%   Direction: 120°ESE
Pressure: 30.13"   Gusts: NA
Location:  39.2183°N, 120.924°W
Report Text: KGOO 280540Z AUTO 12005KT 10SM CLR 14/M01 A3013 RMK AO1
Loading
Personal Weather Stations






























Interactive Weather Map New forecast layout! Learn more

10-Day Weather Forecast

Advertisements
Track Severe Weather on mobile